sensor_id;sensor_type;location;lat;lon;timestamp;P1;durP1;ratioP1;P2;durP2;ratioP2
62582;SDS011;48641;51.676;5.808;2023-03-14T00:01:19;6.80;;;1.77;;
62582;SDS011;48641;51.676;5.808;2023-03-14T00:03:45;3.67;;;1.15;;
62582;SDS011;48641;51.676;5.808;2023-03-14T00:06:11;4.45;;;1.20;;
62582;SDS011;48641;51.676;5.808;2023-03-14T00:08:38;4.72;;;1.55;;
62582;SDS011;48641;51.676;5.808;2023-03-14T00:11:08;4.78;;;1.30;;
62582;SDS011;48641;51.676;5.808;2023-03-14T00:13:39;5.22;;;1.55;;
62582;SDS011;48641;51.676;5.808;2023-03-14T00:16:09;3.65;;;1.17;;
62582;SDS011;48641;51.676;5.808;2023-03-14T00:18:37;5.10;;;1.35;;
62582;SDS011;48641;51.676;5.808;2023-03-14T00:21:04;4.47;;;1.38;;
62582;SDS011;48641;51.676;5.808;2023-03-14T00:23:33;4.45;;;1.30;;
62582;SDS011;48641;51.676;5.808;2023-03-14T00:26:10;3.65;;;1.05;;
62582;SDS011;48641;51.676;5.808;2023-03-14T00:28:37;5.32;;;1.20;;
62582;SDS011;48641;51.676;5.808;2023-03-14T00:31:04;6.75;;;1.60;;
62582;SDS011;48641;51.676;5.808;2023-03-14T00:33:32;5.10;;;1.65;;
62582;SDS011;48641;51.676;5.808;2023-03-14T00:35:58;2.80;;;0.95;;
62582;SDS011;48641;51.676;5.808;2023-03-14T00:38:26;3.70;;;1.40;;
62582;SDS011;48641;51.676;5.808;2023-03-14T00:40:52;3.55;;;1.17;;
62582;SDS011;48641;51.676;5.808;2023-03-14T00:43:19;2.40;;;0.82;;
62582;SDS011;48641;51.676;5.808;2023-03-14T00:45:47;1.60;;;0.80;;
62582;SDS011;48641;51.676;5.808;2023-03-14T00:48:13;4.85;;;1.20;;
62582;SDS011;48641;51.676;5.808;2023-03-14T00:50:39;3.63;;;1.13;;
62582;SDS011;48641;51.676;5.808;2023-03-14T00:53:04;4.63;;;1.40;;
62582;SDS011;48641;51.676;5.808;2023-03-14T00:55:30;4.80;;;1.25;;
62582;SDS011;48641;51.676;5.808;2023-03-14T00:57:56;4.07;;;1.10;;
62582;SDS011;48641;51.676;5.808;2023-03-14T01:00:21;4.05;;;0.95;;
62582;SDS011;48641;51.676;5.808;2023-03-14T01:02:47;3.75;;;1.00;;
62582;SDS011;48641;51.676;5.808;2023-03-14T01:05:13;3.20;;;0.90;;
62582;SDS011;48641;51.676;5.808;2023-03-14T01:07:38;2.80;;;0.80;;
62582;SDS011;48641;51.676;5.808;2023-03-14T01:10:04;3.47;;;0.98;;
62582;SDS011;48641;51.676;5.808;2023-03-14T01:12:31;3.38;;;1.00;;
62582;SDS011;48641;51.676;5.808;2023-03-14T01:14:57;2.55;;;0.70;;
62582;SDS011;48641;51.676;5.808;2023-03-14T01:17:22;4.20;;;1.10;;
62582;SDS011;48641;51.676;5.808;2023-03-14T01:19:48;1.92;;;0.80;;
62582;SDS011;48641;51.676;5.808;2023-03-14T01:22:14;3.95;;;0.82;;
62582;SDS011;48641;51.676;5.808;2023-03-14T01:24:39;2.55;;;0.80;;
62582;SDS011;48641;51.676;5.808;2023-03-14T01:27:05;3.90;;;0.90;;
62582;SDS011;48641;51.676;5.808;2023-03-14T01:29:30;1.95;;;0.65;;
62582;SDS011;48641;51.676;5.808;2023-03-14T01:31:56;4.28;;;0.90;;
62582;SDS011;48641;51.676;5.808;2023-03-14T01:34:22;2.05;;;0.75;;
62582;SDS011;48641;51.676;5.808;2023-03-14T01:36:47;1.80;;;0.90;;
62582;SDS011;48641;51.676;5.808;2023-03-14T01:39:13;2.47;;;0.60;;
62582;SDS011;48641;51.676;5.808;2023-03-14T01:41:39;3.08;;;0.70;;
62582;SDS011;48641;51.676;5.808;2023-03-14T01:44:05;4.22;;;0.70;;
62582;SDS011;48641;51.676;5.808;2023-03-14T01:52:02;3.30;;;0.80;;
62582;SDS011;48641;51.676;5.808;2023-03-14T01:54:36;0.95;;;0.50;;
62582;SDS011;48641;51.676;5.808;2023-03-14T01:57:10;2.17;;;0.68;;
62582;SDS011;48641;51.676;5.808;2023-03-14T01:59:43;3.00;;;0.90;;
62582;SDS011;48641;51.676;5.808;2023-03-14T02:02:16;2.58;;;0.75;;
62582;SDS011;48641;51.676;5.808;2023-03-14T02:04:41;3.50;;;0.50;;
62582;SDS011;48641;51.676;5.808;2023-03-14T02:09:37;2.60;;;0.80;;
62582;SDS011;48641;51.676;5.808;2023-03-14T02:12:05;4.60;;;1.00;;
62582;SDS011;48641;51.676;5.808;2023-03-14T02:14:33;5.30;;;1.13;;
62582;SDS011;48641;51.676;5.808;2023-03-14T02:17:01;2.67;;;1.13;;
62582;SDS011;48641;51.676;5.808;2023-03-14T02:19:32;3.83;;;1.00;;
62582;SDS011;48641;51.676;5.808;2023-03-14T02:22:26;1.55;;;0.50;;
62582;SDS011;48641;51.676;5.808;2023-03-14T02:25:13;1.75;;;0.57;;
62582;SDS011;48641;51.676;5.808;2023-03-14T02:27:49;2.53;;;0.70;;
62582;SDS011;48641;51.676;5.808;2023-03-14T02:30:20;2.78;;;0.70;;
62582;SDS011;48641;51.676;5.808;2023-03-14T02:32:47;3.70;;;0.80;;
62582;SDS011;48641;51.676;5.808;2023-03-14T02:35:24;3.03;;;0.70;;
62582;SDS011;48641;51.676;5.808;2023-03-14T02:40:23;2.87;;;0.70;;
62582;SDS011;48641;51.676;5.808;2023-03-14T02:42:48;2.30;;;0.55;;
62582;SDS011;48641;51.676;5.808;2023-03-14T02:47:42;1.38;;;0.50;;
62582;SDS011;48641;51.676;5.808;2023-03-14T02:50:12;4.15;;;0.70;;
62582;SDS011;48641;51.676;5.808;2023-03-14T02:52:41;4.10;;;0.82;;
62582;SDS011;48641;51.676;5.808;2023-03-14T02:55:07;1.80;;;0.47;;
62582;SDS011;48641;51.676;5.808;2023-03-14T02:57:33;4.13;;;0.80;;
62582;SDS011;48641;51.676;5.808;2023-03-14T02:59:59;3.00;;;0.77;;
62582;SDS011;48641;51.676;5.808;2023-03-14T03:02:26;2.55;;;0.63;;
62582;SDS011;48641;51.676;5.808;2023-03-14T03:04:52;2.65;;;0.80;;
62582;SDS011;48641;51.676;5.808;2023-03-14T03:07:17;3.10;;;0.88;;
62582;SDS011;48641;51.676;5.808;2023-03-14T03:09:44;4.95;;;0.80;;
62582;SDS011;48641;51.676;5.808;2023-03-14T03:12:10;1.90;;;0.60;;
62582;SDS011;48641;51.676;5.808;2023-03-14T03:14:35;5.03;;;1.10;;
62582;SDS011;48641;51.676;5.808;2023-03-14T03:17:02;4.18;;;0.77;;
62582;SDS011;48641;51.676;5.808;2023-03-14T03:19:28;3.80;;;0.80;;
62582;SDS011;48641;51.676;5.808;2023-03-14T03:21:55;4.72;;;0.80;;
62582;SDS011;48641;51.676;5.808;2023-03-14T03:24:21;3.28;;;0.60;;
62582;SDS011;48641;51.676;5.808;2023-03-14T03:26:46;2.63;;;0.85;;
62582;SDS011;48641;51.676;5.808;2023-03-14T03:29:12;2.90;;;0.70;;
62582;SDS011;48641;51.676;5.808;2023-03-14T03:31:37;4.28;;;0.90;;
62582;SDS011;48641;51.676;5.808;2023-03-14T03:34:04;3.45;;;0.70;;
62582;SDS011;48641;51.676;5.808;2023-03-14T03:36:29;2.97;;;0.80;;
62582;SDS011;48641;51.676;5.808;2023-03-14T03:38:55;4.70;;;0.90;;
62582;SDS011;48641;51.676;5.808;2023-03-14T03:41:21;1.10;;;0.68;;
62582;SDS011;48641;51.676;5.808;2023-03-14T03:43:46;3.00;;;0.85;;
62582;SDS011;48641;51.676;5.808;2023-03-14T03:46:12;3.92;;;0.80;;
62582;SDS011;48641;51.676;5.808;2023-03-14T03:48:37;3.17;;;0.90;;
62582;SDS011;48641;51.676;5.808;2023-03-14T03:51:03;3.67;;;0.70;;
62582;SDS011;48641;51.676;5.808;2023-03-14T03:53:29;3.88;;;0.82;;
62582;SDS011;48641;51.676;5.808;2023-03-14T03:55:55;7.28;;;1.05;;
62582;SDS011;48641;51.676;5.808;2023-03-14T03:58:20;4.28;;;1.20;;
62582;SDS011;48641;51.676;5.808;2023-03-14T04:00:46;2.58;;;0.70;;
62582;SDS011;48641;51.676;5.808;2023-03-14T04:03:12;2.08;;;0.75;;
62582;SDS011;48641;51.676;5.808;2023-03-14T04:05:37;3.42;;;0.70;;
62582;SDS011;48641;51.676;5.808;2023-03-14T04:08:03;2.13;;;0.60;;
62582;SDS011;48641;51.676;5.808;2023-03-14T04:10:29;2.55;;;0.70;;
62582;SDS011;48641;51.676;5.808;2023-03-14T04:12:58;2.60;;;0.63;;
62582;SDS011;48641;51.676;5.808;2023-03-14T04:15:24;2.30;;;0.70;;
62582;SDS011;48641;51.676;5.808;2023-03-14T04:17:49;3.00;;;0.60;;
62582;SDS011;48641;51.676;5.808;2023-03-14T04:20:15;2.35;;;0.65;;
62582;SDS011;48641;51.676;5.808;2023-03-14T04:22:41;3.33;;;0.90;;
62582;SDS011;48641;51.676;5.808;2023-03-14T04:25:06;3.20;;;0.70;;
62582;SDS011;48641;51.676;5.808;2023-03-14T04:27:32;3.08;;;0.77;;
62582;SDS011;48641;51.676;5.808;2023-03-14T04:29:58;2.92;;;0.63;;
62582;SDS011;48641;51.676;5.808;2023-03-14T04:32:23;3.33;;;0.70;;
62582;SDS011;48641;51.676;5.808;2023-03-14T04:34:49;2.47;;;0.80;;
62582;SDS011;48641;51.676;5.808;2023-03-14T04:37:14;3.05;;;0.73;;
62582;SDS011;48641;51.676;5.808;2023-03-14T04:39:40;4.78;;;0.82;;
62582;SDS011;48641;51.676;5.808;2023-03-14T04:42:06;3.28;;;0.68;;
62582;SDS011;48641;51.676;5.808;2023-03-14T04:44:32;3.50;;;0.75;;
62582;SDS011;48641;51.676;5.808;2023-03-14T04:46:57;3.83;;;0.75;;
62582;SDS011;48641;51.676;5.808;2023-03-14T04:49:23;2.35;;;0.50;;
62582;SDS011;48641;51.676;5.808;2023-03-14T04:51:48;3.15;;;0.80;;
62582;SDS011;48641;51.676;5.808;2023-03-14T04:54:16;1.83;;;0.57;;
62582;SDS011;48641;51.676;5.808;2023-03-14T04:56:42;4.20;;;0.70;;
62582;SDS011;48641;51.676;5.808;2023-03-14T04:59:08;2.42;;;0.73;;
62582;SDS011;48641;51.676;5.808;2023-03-14T05:01:34;3.22;;;0.85;;
62582;SDS011;48641;51.676;5.808;2023-03-14T05:03:59;2.80;;;0.65;;
62582;SDS011;48641;51.676;5.808;2023-03-14T05:06:25;2.30;;;0.55;;
62582;SDS011;48641;51.676;5.808;2023-03-14T05:08:51;2.15;;;0.63;;
62582;SDS011;48641;51.676;5.808;2023-03-14T05:11:17;5.07;;;0.90;;
62582;SDS011;48641;51.676;5.808;2023-03-14T05:13:43;3.03;;;0.60;;
62582;SDS011;48641;51.676;5.808;2023-03-14T05:16:09;4.13;;;0.60;;
62582;SDS011;48641;51.676;5.808;2023-03-14T05:18:36;3.60;;;1.10;;
62582;SDS011;48641;51.676;5.808;2023-03-14T05:21:02;1.95;;;0.70;;
62582;SDS011;48641;51.676;5.808;2023-03-14T05:23:28;2.33;;;0.63;;
62582;SDS011;48641;51.676;5.808;2023-03-14T05:25:54;2.13;;;0.68;;
62582;SDS011;48641;51.676;5.808;2023-03-14T05:28:20;2.70;;;0.77;;
62582;SDS011;48641;51.676;5.808;2023-03-14T05:30:46;3.65;;;0.70;;
62582;SDS011;48641;51.676;5.808;2023-03-14T05:33:11;3.50;;;0.80;;
62582;SDS011;48641;51.676;5.808;2023-03-14T05:35:37;4.00;;;1.02;;
62582;SDS011;48641;51.676;5.808;2023-03-14T05:38:03;4.10;;;0.95;;
62582;SDS011;48641;51.676;5.808;2023-03-14T05:40:28;1.70;;;0.70;;
62582;SDS011;48641;51.676;5.808;2023-03-14T05:42:54;1.95;;;0.70;;
62582;SDS011;48641;51.676;5.808;2023-03-14T05:45:19;1.48;;;0.70;;
62582;SDS011;48641;51.676;5.808;2023-03-14T05:47:45;2.22;;;0.95;;
62582;SDS011;48641;51.676;5.808;2023-03-14T05:50:11;3.70;;;0.95;;
62582;SDS011;48641;51.676;5.808;2023-03-14T05:52:37;2.65;;;0.73;;
62582;SDS011;48641;51.676;5.808;2023-03-14T05:55:02;1.73;;;0.68;;
62582;SDS011;48641;51.676;5.808;2023-03-14T05:57:28;2.08;;;0.60;;
62582;SDS011;48641;51.676;5.808;2023-03-14T05:59:54;2.88;;;0.93;;
62582;SDS011;48641;51.676;5.808;2023-03-14T06:02:20;2.25;;;0.70;;
62582;SDS011;48641;51.676;5.808;2023-03-14T06:04:45;2.65;;;0.88;;
62582;SDS011;48641;51.676;5.808;2023-03-14T06:07:11;3.53;;;0.98;;
62582;SDS011;48641;51.676;5.808;2023-03-14T06:09:36;2.60;;;0.90;;
62582;SDS011;48641;51.676;5.808;2023-03-14T06:12:03;2.40;;;0.93;;
62582;SDS011;48641;51.676;5.808;2023-03-14T06:14:28;2.25;;;0.85;;
62582;SDS011;48641;51.676;5.808;2023-03-14T06:16:54;1.10;;;0.60;;
62582;SDS011;48641;51.676;5.808;2023-03-14T06:19:19;1.65;;;0.73;;
62582;SDS011;48641;51.676;5.808;2023-03-14T06:21:46;2.53;;;0.93;;
62582;SDS011;48641;51.676;5.808;2023-03-14T06:24:14;2.17;;;0.93;;
62582;SDS011;48641;51.676;5.808;2023-03-14T06:26:40;3.25;;;0.75;;
62582;SDS011;48641;51.676;5.808;2023-03-14T06:29:06;2.97;;;0.90;;
62582;SDS011;48641;51.676;5.808;2023-03-14T06:31:32;2.40;;;0.77;;
62582;SDS011;48641;51.676;5.808;2023-03-14T06:33:57;1.45;;;0.63;;
62582;SDS011;48641;51.676;5.808;2023-03-14T06:36:23;1.48;;;0.70;;
62582;SDS011;48641;51.676;5.808;2023-03-14T06:38:49;1.80;;;0.70;;
62582;SDS011;48641;51.676;5.808;2023-03-14T06:41:15;1.80;;;0.70;;
62582;SDS011;48641;51.676;5.808;2023-03-14T06:43:41;2.17;;;0.77;;
62582;SDS011;48641;51.676;5.808;2023-03-14T06:46:07;3.92;;;0.90;;
62582;SDS011;48641;51.676;5.808;2023-03-14T06:48:32;2.28;;;0.80;;
62582;SDS011;48641;51.676;5.808;2023-03-14T06:50:58;1.48;;;0.77;;
62582;SDS011;48641;51.676;5.808;2023-03-14T06:53:24;1.88;;;0.70;;
62582;SDS011;48641;51.676;5.808;2023-03-14T06:55:49;2.97;;;1.00;;
62582;SDS011;48641;51.676;5.808;2023-03-14T06:58:15;2.00;;;0.70;;
62582;SDS011;48641;51.676;5.808;2023-03-14T07:00:41;4.20;;;0.85;;
62582;SDS011;48641;51.676;5.808;2023-03-14T07:03:06;3.05;;;0.70;;
62582;SDS011;48641;51.676;5.808;2023-03-14T07:05:33;2.22;;;0.85;;
62582;SDS011;48641;51.676;5.808;2023-03-14T07:07:59;3.08;;;0.90;;
62582;SDS011;48641;51.676;5.808;2023-03-14T07:10:25;2.67;;;0.80;;
62582;SDS011;48641;51.676;5.808;2023-03-14T07:12:50;2.30;;;0.80;;
62582;SDS011;48641;51.676;5.808;2023-03-14T07:15:17;2.83;;;0.90;;
62582;SDS011;48641;51.676;5.808;2023-03-14T07:17:43;2.72;;;1.00;;
62582;SDS011;48641;51.676;5.808;2023-03-14T07:20:09;2.25;;;0.85;;
62582;SDS011;48641;51.676;5.808;2023-03-14T07:22:35;1.58;;;0.80;;
62582;SDS011;48641;51.676;5.808;2023-03-14T07:25:00;1.85;;;0.70;;
62582;SDS011;48641;51.676;5.808;2023-03-14T07:27:26;1.67;;;0.80;;
62582;SDS011;48641;51.676;5.808;2023-03-14T07:29:51;2.42;;;0.90;;
62582;SDS011;48641;51.676;5.808;2023-03-14T07:32:17;5.78;;;0.80;;
62582;SDS011;48641;51.676;5.808;2023-03-14T07:34:43;0.85;;;0.60;;
62582;SDS011;48641;51.676;5.808;2023-03-14T07:37:08;1.80;;;0.60;;
62582;SDS011;48641;51.676;5.808;2023-03-14T07:39:34;2.75;;;0.80;;
62582;SDS011;48641;51.676;5.808;2023-03-14T07:42:00;2.33;;;0.98;;
62582;SDS011;48641;51.676;5.808;2023-03-14T07:44:26;0.90;;;0.70;;
62582;SDS011;48641;51.676;5.808;2023-03-14T07:46:52;3.47;;;0.70;;
62582;SDS011;48641;51.676;5.808;2023-03-14T07:49:17;2.67;;;0.95;;
62582;SDS011;48641;51.676;5.808;2023-03-14T07:51:43;2.28;;;0.80;;
62582;SDS011;48641;51.676;5.808;2023-03-14T07:54:09;2.42;;;0.82;;
62582;SDS011;48641;51.676;5.808;2023-03-14T07:56:35;1.38;;;0.70;;
62582;SDS011;48641;51.676;5.808;2023-03-14T07:59:01;1.77;;;0.80;;
62582;SDS011;48641;51.676;5.808;2023-03-14T08:01:26;1.42;;;0.60;;
62582;SDS011;48641;51.676;5.808;2023-03-14T08:03:52;3.08;;;0.80;;
62582;SDS011;48641;51.676;5.808;2023-03-14T08:06:18;3.03;;;0.88;;
62582;SDS011;48641;51.676;5.808;2023-03-14T08:08:43;2.80;;;0.95;;
62582;SDS011;48641;51.676;5.808;2023-03-14T08:11:09;1.98;;;0.80;;
62582;SDS011;48641;51.676;5.808;2023-03-14T08:13:35;2.28;;;0.68;;
62582;SDS011;48641;51.676;5.808;2023-03-14T08:16:01;2.45;;;0.75;;
62582;SDS011;48641;51.676;5.808;2023-03-14T08:18:27;2.78;;;0.80;;
62582;SDS011;48641;51.676;5.808;2023-03-14T08:20:52;1.02;;;0.63;;
62582;SDS011;48641;51.676;5.808;2023-03-14T08:23:18;1.65;;;0.68;;
62582;SDS011;48641;51.676;5.808;2023-03-14T08:25:44;1.95;;;0.80;;
62582;SDS011;48641;51.676;5.808;2023-03-14T08:28:09;3.45;;;0.70;;
62582;SDS011;48641;51.676;5.808;2023-03-14T08:30:35;1.77;;;0.70;;
62582;SDS011;48641;51.676;5.808;2023-03-14T08:33:01;2.45;;;0.70;;
62582;SDS011;48641;51.676;5.808;2023-03-14T08:35:26;2.70;;;0.80;;
62582;SDS011;48641;51.676;5.808;2023-03-14T08:37:52;3.42;;;0.98;;
62582;SDS011;48641;51.676;5.808;2023-03-14T08:40:18;2.55;;;0.85;;
62582;SDS011;48641;51.676;5.808;2023-03-14T08:42:44;1.90;;;0.80;;
62582;SDS011;48641;51.676;5.808;2023-03-14T08:45:11;3.25;;;0.90;;
62582;SDS011;48641;51.676;5.808;2023-03-14T08:47:39;2.10;;;0.70;;
62582;SDS011;48641;51.676;5.808;2023-03-14T08:50:05;3.45;;;0.80;;
62582;SDS011;48641;51.676;5.808;2023-03-14T08:52:31;2.95;;;0.90;;
62582;SDS011;48641;51.676;5.808;2023-03-14T08:54:57;1.55;;;0.70;;
62582;SDS011;48641;51.676;5.808;2023-03-14T08:57:23;1.48;;;0.60;;
62582;SDS011;48641;51.676;5.808;2023-03-14T08:59:52;2.08;;;0.98;;
62582;SDS011;48641;51.676;5.808;2023-03-14T09:02:20;2.35;;;0.70;;
62582;SDS011;48641;51.676;5.808;2023-03-14T09:04:45;2.28;;;0.88;;
62582;SDS011;48641;51.676;5.808;2023-03-14T09:07:11;1.80;;;0.80;;
62582;SDS011;48641;51.676;5.808;2023-03-14T09:09:36;1.48;;;0.60;;
62582;SDS011;48641;51.676;5.808;2023-03-14T09:12:02;1.73;;;0.90;;
62582;SDS011;48641;51.676;5.808;2023-03-14T09:14:29;2.22;;;0.90;;
62582;SDS011;48641;51.676;5.808;2023-03-14T09:16:55;2.90;;;0.88;;
62582;SDS011;48641;51.676;5.808;2023-03-14T09:19:21;3.80;;;0.70;;
62582;SDS011;48641;51.676;5.808;2023-03-14T09:21:46;4.35;;;1.10;;
62582;SDS011;48641;51.676;5.808;2023-03-14T09:24:12;3.72;;;0.82;;
62582;SDS011;48641;51.676;5.808;2023-03-14T09:26:37;2.78;;;0.80;;
62582;SDS011;48641;51.676;5.808;2023-03-14T09:29:03;3.97;;;0.80;;
62582;SDS011;48641;51.676;5.808;2023-03-14T09:31:29;1.77;;;0.70;;
62582;SDS011;48641;51.676;5.808;2023-03-14T09:33:54;7.05;;;1.15;;
62582;SDS011;48641;51.676;5.808;2023-03-14T09:36:20;2.75;;;0.70;;
62582;SDS011;48641;51.676;5.808;2023-03-14T09:38:46;4.65;;;1.05;;
62582;SDS011;48641;51.676;5.808;2023-03-14T09:41:16;3.97;;;0.80;;
62582;SDS011;48641;51.676;5.808;2023-03-14T09:43:48;3.70;;;1.20;;
62582;SDS011;48641;51.676;5.808;2023-03-14T09:46:19;3.38;;;0.80;;
62582;SDS011;48641;51.676;5.808;2023-03-14T09:48:46;3.47;;;0.80;;
62582;SDS011;48641;51.676;5.808;2023-03-14T09:51:16;4.78;;;0.88;;
62582;SDS011;48641;51.676;5.808;2023-03-14T09:53:46;2.22;;;0.80;;
62582;SDS011;48641;51.676;5.808;2023-03-14T09:56:19;3.88;;;1.00;;
62582;SDS011;48641;51.676;5.808;2023-03-14T09:58:56;3.00;;;0.80;;
62582;SDS011;48641;51.676;5.808;2023-03-14T10:01:26;3.25;;;0.85;;
62582;SDS011;48641;51.676;5.808;2023-03-14T10:03:54;2.97;;;0.95;;
62582;SDS011;48641;51.676;5.808;2023-03-14T10:06:22;4.07;;;1.00;;
62582;SDS011;48641;51.676;5.808;2023-03-14T10:08:50;3.00;;;0.80;;
62582;SDS011;48641;51.676;5.808;2023-03-14T10:11:18;2.63;;;0.80;;
62582;SDS011;48641;51.676;5.808;2023-03-14T10:13:48;3.17;;;0.70;;
62582;SDS011;48641;51.676;5.808;2023-03-14T10:16:15;3.03;;;0.80;;
62582;SDS011;48641;51.676;5.808;2023-03-14T10:18:44;7.47;;;0.93;;
62582;SDS011;48641;51.676;5.808;2023-03-14T10:23:53;4.40;;;0.77;;
62582;SDS011;48641;51.676;5.808;2023-03-14T10:26:28;4.32;;;0.90;;
62582;SDS011;48641;51.676;5.808;2023-03-14T10:29:11;3.30;;;1.10;;
62582;SDS011;48641;51.676;5.808;2023-03-14T10:31:48;2.97;;;0.77;;
62582;SDS011;48641;51.676;5.808;2023-03-14T10:34:20;6.15;;;1.20;;
62582;SDS011;48641;51.676;5.808;2023-03-14T10:36:54;3.05;;;0.75;;
62582;SDS011;48641;51.676;5.808;2023-03-14T10:41:52;2.85;;;0.80;;
62582;SDS011;48641;51.676;5.808;2023-03-14T10:46:54;2.28;;;0.80;;
62582;SDS011;48641;51.676;5.808;2023-03-14T10:49:26;4.72;;;0.80;;
62582;SDS011;48641;51.676;5.808;2023-03-14T10:54:39;3.90;;;0.80;;
62582;SDS011;48641;51.676;5.808;2023-03-14T10:57:05;3.53;;;0.82;;
62582;SDS011;48641;51.676;5.808;2023-03-14T10:59:35;3.75;;;0.77;;
62582;SDS011;48641;51.676;5.808;2023-03-14T11:02:13;4.07;;;1.00;;
62582;SDS011;48641;51.676;5.808;2023-03-14T11:07:49;6.22;;;0.90;;
62582;SDS011;48641;51.676;5.808;2023-03-14T11:10:26;3.53;;;0.75;;
62582;SDS011;48641;51.676;5.808;2023-03-14T11:24:41;3.33;;;0.80;;
62582;SDS011;48641;51.676;5.808;2023-03-14T11:27:22;4.20;;;0.70;;
62582;SDS011;48641;51.676;5.808;2023-03-14T11:32:44;3.88;;;0.70;;
62582;SDS011;48641;51.676;5.808;2023-03-14T11:35:34;4.18;;;0.98;;
62582;SDS011;48641;51.676;5.808;2023-03-14T11:40:36;4.68;;;0.80;;
62582;SDS011;48641;51.676;5.808;2023-03-14T11:45:52;3.40;;;0.70;;
62582;SDS011;48641;51.676;5.808;2023-03-14T11:51:40;3.65;;;0.80;;
62582;SDS011;48641;51.676;5.808;2023-03-14T11:54:14;4.78;;;0.70;;
62582;SDS011;48641;51.676;5.808;2023-03-14T11:57:03;3.33;;;0.80;;
62582;SDS011;48641;51.676;5.808;2023-03-14T12:13:21;58.67;;;5.50;;
62582;SDS011;48641;51.676;5.808;2023-03-14T12:15:54;63.95;;;7.75;;
62582;SDS011;48641;51.676;5.808;2023-03-14T12:18:25;30.70;;;4.30;;
62582;SDS011;48641;51.676;5.808;2023-03-14T12:20:58;52.28;;;6.72;;
62582;SDS011;48641;51.676;5.808;2023-03-14T12:23:43;36.75;;;9.80;;
62582;SDS011;48641;51.676;5.808;2023-03-14T12:26:18;16.30;;;2.30;;
62582;SDS011;48641;51.676;5.808;2023-03-14T12:49:44;22.92;;;3.00;;
62582;SDS011;48641;51.676;5.808;2023-03-14T12:57:42;25.33;;;3.13;;
62582;SDS011;48641;51.676;5.808;2023-03-14T13:00:16;18.48;;;3.00;;
62582;SDS011;48641;51.676;5.808;2023-03-14T13:02:47;20.55;;;2.63;;
62582;SDS011;48641;51.676;5.808;2023-03-14T13:05:16;20.05;;;2.33;;
62582;SDS011;48641;51.676;5.808;2023-03-14T13:12:48;15.57;;;2.47;;
62582;SDS011;48641;51.676;5.808;2023-03-14T13:15:20;18.73;;;1.92;;
62582;SDS011;48641;51.676;5.808;2023-03-14T13:17:54;16.17;;;2.28;;
62582;SDS011;48641;51.676;5.808;2023-03-14T13:22:57;13.27;;;1.88;;
62582;SDS011;48641;51.676;5.808;2023-03-14T13:25:23;13.10;;;1.67;;
62582;SDS011;48641;51.676;5.808;2023-03-14T13:27:49;15.55;;;2.35;;
62582;SDS011;48641;51.676;5.808;2023-03-14T13:30:22;13.35;;;1.60;;
62582;SDS011;48641;51.676;5.808;2023-03-14T13:32:52;15.13;;;2.08;;
62582;SDS011;48641;51.676;5.808;2023-03-14T13:35:26;13.68;;;1.98;;
62582;SDS011;48641;51.676;5.808;2023-03-14T13:37:57;9.75;;;1.80;;
62582;SDS011;48641;51.676;5.808;2023-03-14T13:40:26;13.40;;;1.83;;
62582;SDS011;48641;51.676;5.808;2023-03-14T13:43:01;8.55;;;1.38;;
62582;SDS011;48641;51.676;5.808;2023-03-14T13:45:29;13.55;;;1.67;;
62582;SDS011;48641;51.676;5.808;2023-03-14T13:47:55;11.23;;;2.28;;
62582;SDS011;48641;51.676;5.808;2023-03-14T13:50:20;8.90;;;1.70;;
62582;SDS011;48641;51.676;5.808;2023-03-14T13:52:46;11.15;;;1.50;;
62582;SDS011;48641;51.676;5.808;2023-03-14T13:55:17;13.75;;;1.80;;
62582;SDS011;48641;51.676;5.808;2023-03-14T13:57:47;9.95;;;1.73;;
62582;SDS011;48641;51.676;5.808;2023-03-14T14:00:23;10.73;;;1.50;;
62582;SDS011;48641;51.676;5.808;2023-03-14T14:02:54;13.55;;;1.63;;
62582;SDS011;48641;51.676;5.808;2023-03-14T14:05:23;12.07;;;1.60;;
62582;SDS011;48641;51.676;5.808;2023-03-14T14:07:52;12.23;;;2.05;;
62582;SDS011;48641;51.676;5.808;2023-03-14T14:10:18;18.00;;;2.28;;
62582;SDS011;48641;51.676;5.808;2023-03-14T14:12:52;8.18;;;1.40;;
62582;SDS011;48641;51.676;5.808;2023-03-14T14:15:28;11.50;;;1.63;;
62582;SDS011;48641;51.676;5.808;2023-03-14T14:17:57;11.65;;;1.45;;
62582;SDS011;48641;51.676;5.808;2023-03-14T14:20:40;10.23;;;1.65;;
62582;SDS011;48641;51.676;5.808;2023-03-14T14:23:14;7.85;;;1.25;;
62582;SDS011;48641;51.676;5.808;2023-03-14T14:25:50;10.88;;;1.55;;
62582;SDS011;48641;51.676;5.808;2023-03-14T14:31:04;8.60;;;1.20;;
62582;SDS011;48641;51.676;5.808;2023-03-14T14:36:14;10.38;;;1.55;;
62582;SDS011;48641;51.676;5.808;2023-03-14T14:39:09;9.75;;;1.50;;
62582;SDS011;48641;51.676;5.808;2023-03-14T14:41:57;8.85;;;1.50;;
62582;SDS011;48641;51.676;5.808;2023-03-14T14:44:28;10.50;;;1.60;;
62582;SDS011;48641;51.676;5.808;2023-03-14T14:46:57;8.02;;;1.48;;
62582;SDS011;48641;51.676;5.808;2023-03-14T14:49:28;11.43;;;1.38;;
62582;SDS011;48641;51.676;5.808;2023-03-14T14:52:03;8.45;;;1.58;;
62582;SDS011;48641;51.676;5.808;2023-03-14T14:54:33;5.78;;;1.25;;
62582;SDS011;48641;51.676;5.808;2023-03-14T14:57:03;7.18;;;1.10;;
62582;SDS011;48641;51.676;5.808;2023-03-14T14:59:30;13.38;;;1.48;;
62582;SDS011;48641;51.676;5.808;2023-03-14T15:01:57;7.00;;;1.10;;
62582;SDS011;48641;51.676;5.808;2023-03-14T15:04:24;6.00;;;1.00;;
62582;SDS011;48641;51.676;5.808;2023-03-14T15:06:50;6.47;;;1.27;;
62582;SDS011;48641;51.676;5.808;2023-03-14T15:09:17;7.75;;;1.58;;
62582;SDS011;48641;51.676;5.808;2023-03-14T15:11:44;7.32;;;1.30;;
62582;SDS011;48641;51.676;5.808;2023-03-14T15:14:11;5.13;;;0.98;;
62582;SDS011;48641;51.676;5.808;2023-03-14T15:16:36;7.10;;;1.27;;
62582;SDS011;48641;51.676;5.808;2023-03-14T15:19:10;8.32;;;1.58;;
62582;SDS011;48641;51.676;5.808;2023-03-14T15:21:49;8.43;;;1.70;;
62582;SDS011;48641;51.676;5.808;2023-03-14T15:24:15;7.18;;;1.30;;
62582;SDS011;48641;51.676;5.808;2023-03-14T15:26:41;10.68;;;1.85;;
62582;SDS011;48641;51.676;5.808;2023-03-14T15:29:09;13.93;;;1.60;;
62582;SDS011;48641;51.676;5.808;2023-03-14T15:31:37;11.25;;;1.88;;
62582;SDS011;48641;51.676;5.808;2023-03-14T15:34:03;19.08;;;1.98;;
62582;SDS011;48641;51.676;5.808;2023-03-14T15:36:30;14.23;;;2.55;;
62582;SDS011;48641;51.676;5.808;2023-03-14T15:38:58;14.43;;;3.40;;
62582;SDS011;48641;51.676;5.808;2023-03-14T16:51:46;6.50;;;1.58;;
62582;SDS011;48641;51.676;5.808;2023-03-14T16:54:12;7.38;;;1.92;;
62582;SDS011;48641;51.676;5.808;2023-03-14T16:56:38;7.65;;;2.17;;
62582;SDS011;48641;51.676;5.808;2023-03-14T16:59:03;5.22;;;1.60;;
62582;SDS011;48641;51.676;5.808;2023-03-14T17:01:29;10.30;;;2.00;;
62582;SDS011;48641;51.676;5.808;2023-03-14T17:03:55;6.70;;;1.52;;
62582;SDS011;48641;51.676;5.808;2023-03-14T17:06:22;6.20;;;1.55;;
62582;SDS011;48641;51.676;5.808;2023-03-14T17:08:50;8.02;;;1.63;;
62582;SDS011;48641;51.676;5.808;2023-03-14T17:11:16;7.43;;;1.90;;
62582;SDS011;48641;51.676;5.808;2023-03-14T17:13:42;9.55;;;1.80;;
62582;SDS011;48641;51.676;5.808;2023-03-14T17:16:08;7.07;;;2.00;;
62582;SDS011;48641;51.676;5.808;2023-03-14T17:18:34;8.27;;;1.90;;
62582;SDS011;48641;51.676;5.808;2023-03-14T17:21:01;10.55;;;2.58;;
62582;SDS011;48641;51.676;5.808;2023-03-14T17:23:27;7.10;;;2.00;;
62582;SDS011;48641;51.676;5.808;2023-03-14T17:25:54;9.25;;;1.80;;
62582;SDS011;48641;51.676;5.808;2023-03-14T17:28:20;7.15;;;2.00;;
62582;SDS011;48641;51.676;5.808;2023-03-14T17:30:47;5.97;;;1.98;;
62582;SDS011;48641;51.676;5.808;2023-03-14T17:33:13;7.53;;;1.95;;
62582;SDS011;48641;51.676;5.808;2023-03-14T17:35:41;7.68;;;2.25;;
62582;SDS011;48641;51.676;5.808;2023-03-14T17:38:07;10.40;;;2.28;;
62582;SDS011;48641;51.676;5.808;2023-03-14T17:40:32;7.25;;;2.03;;
62582;SDS011;48641;51.676;5.808;2023-03-14T17:42:58;5.90;;;1.80;;